Terminal Aerodrome Forecast
Issued by NWS

Home | Current Version | Previous Version | Graphics & Text | Print | Product List | Glossary Off
Versions: 1 2 3 4 5 6 7 8 9 10 11 12 13 14 15

000
FTUS43 KDDC 230520
TAFHYS
TAF
KHYS 230520Z 2306/2406 33013KT P6SM SCT100
     FM230900 32010KT P6SM SCT100
     FM231500 34015G25KT P6SM SCT070 SCT100
     FM231800 34019G29KT P6SM OVC070
     FM240000 36010G20KT P6SM BKN070
     FM240300 36007KT P6SM SCT070=

USA.gov is the U.S. government's official web portal to all federal, state and local government web resources and services.